sensor_id;sensor_type;location;lat;lon;timestamp;temperature;humidity
11836;DHT22;5977;51.972;7.640;2023-03-14T00:00:59;16.90;77.50
11836;DHT22;5977;51.972;7.640;2023-03-14T00:03:28;16.80;77.60
11836;DHT22;5977;51.972;7.640;2023-03-14T00:06:01;16.90;77.50
11836;DHT22;5977;51.972;7.640;2023-03-14T00:08:29;17.00;77.80
11836;DHT22;5977;51.972;7.640;2023-03-14T00:10:57;16.90;76.50
11836;DHT22;5977;51.972;7.640;2023-03-14T00:13:25;16.80;77.80
11836;DHT22;5977;51.972;7.640;2023-03-14T00:15:53;16.80;78.60
11836;DHT22;5977;51.972;7.640;2023-03-14T00:18:21;16.80;77.30
11836;DHT22;5977;51.972;7.640;2023-03-14T00:20:49;16.80;77.40
11836;DHT22;5977;51.972;7.640;2023-03-14T00:23:19;16.90;76.50
11836;DHT22;5977;51.972;7.640;2023-03-14T00:25:47;16.70;76.40
11836;DHT22;5977;51.972;7.640;2023-03-14T00:28:14;16.80;77.30
11836;DHT22;5977;51.972;7.640;2023-03-14T00:30:42;16.80;75.90
11836;DHT22;5977;51.972;7.640;2023-03-14T00:33:10;16.70;77.40
11836;DHT22;5977;51.972;7.640;2023-03-14T00:35:40;16.90;77.60
11836;DHT22;5977;51.972;7.640;2023-03-14T00:38:08;16.80;76.30
11836;DHT22;5977;51.972;7.640;2023-03-14T00:40:40;16.70;77.10
11836;DHT22;5977;51.972;7.640;2023-03-14T00:43:09;16.80;78.10
11836;DHT22;5977;51.972;7.640;2023-03-14T00:45:37;16.90;77.60
11836;DHT22;5977;51.972;7.640;2023-03-14T00:48:05;16.80;77.70
11836;DHT22;5977;51.972;7.640;2023-03-14T00:50:33;16.60;76.40
11836;DHT22;5977;51.972;7.640;2023-03-14T00:53:01;16.70;76.70
11836;DHT22;5977;51.972;7.640;2023-03-14T00:55:29;16.70;77.50
11836;DHT22;5977;51.972;7.640;2023-03-14T00:57:58;16.70;77.40
11836;DHT22;5977;51.972;7.640;2023-03-14T01:00:26;16.70;76.40
11836;DHT22;5977;51.972;7.640;2023-03-14T01:02:54;16.80;77.70
11836;DHT22;5977;51.972;7.640;2023-03-14T01:05:23;16.80;77.40
11836;DHT22;5977;51.972;7.640;2023-03-14T01:07:51;16.70;76.40
11836;DHT22;5977;51.972;7.640;2023-03-14T01:10:19;16.40;76.50
11836;DHT22;5977;51.972;7.640;2023-03-14T01:12:47;16.50;77.60
11836;DHT22;5977;51.972;7.640;2023-03-14T01:15:16;16.40;77.90
11836;DHT22;5977;51.972;7.640;2023-03-14T01:17:44;16.40;78.60
11836;DHT22;5977;51.972;7.640;2023-03-14T01:20:14;16.40;78.70
11836;DHT22;5977;51.972;7.640;2023-03-14T01:22:43;16.50;77.70
11836;DHT22;5977;51.972;7.640;2023-03-14T01:25:13;16.40;76.90
11836;DHT22;5977;51.972;7.640;2023-03-14T01:27:41;16.40;77.50
11836;DHT22;5977;51.972;7.640;2023-03-14T01:30:11;16.60;77.80
11836;DHT22;5977;51.972;7.640;2023-03-14T01:32:40;16.60;77.40
11836;DHT22;5977;51.972;7.640;2023-03-14T01:35:08;16.70;76.70
11836;DHT22;5977;51.972;7.640;2023-03-14T01:37:36;16.60;76.30
11836;DHT22;5977;51.972;7.640;2023-03-14T01:40:09;16.60;76.60
11836;DHT22;5977;51.972;7.640;2023-03-14T01:42:38;16.60;77.10
11836;DHT22;5977;51.972;7.640;2023-03-14T01:48:14;16.50;77.20
11836;DHT22;5977;51.972;7.640;2023-03-14T01:50:42;16.50;77.10
11836;DHT22;5977;51.972;7.640;2023-03-14T01:53:10;16.50;78.00
11836;DHT22;5977;51.972;7.640;2023-03-14T01:55:38;16.50;77.60
11836;DHT22;5977;51.972;7.640;2023-03-14T01:58:07;16.50;77.70
11836;DHT22;5977;51.972;7.640;2023-03-14T02:00:36;16.70;79.60
11836;DHT22;5977;51.972;7.640;2023-03-14T02:03:08;16.60;78.10
11836;DHT22;5977;51.972;7.640;2023-03-14T02:05:41;16.70;79.50
11836;DHT22;5977;51.972;7.640;2023-03-14T02:08:18;16.50;78.60
11836;DHT22;5977;51.972;7.640;2023-03-14T02:10:50;16.40;79.40
11836;DHT22;5977;51.972;7.640;2023-03-14T02:13:38;16.40;79.30
11836;DHT22;5977;51.972;7.640;2023-03-14T02:16:34;16.40;80.00
11836;DHT22;5977;51.972;7.640;2023-03-14T02:19:27;16.40;79.20
11836;DHT22;5977;51.972;7.640;2023-03-14T02:22:06;16.40;79.50
11836;DHT22;5977;51.972;7.640;2023-03-14T02:24:46;16.40;79.20
11836;DHT22;5977;51.972;7.640;2023-03-14T02:27:18;16.40;80.00
11836;DHT22;5977;51.972;7.640;2023-03-14T02:29:50;16.20;80.30
11836;DHT22;5977;51.972;7.640;2023-03-14T02:32:20;16.20;80.30
11836;DHT22;5977;51.972;7.640;2023-03-14T02:34:51;16.20;81.40
11836;DHT22;5977;51.972;7.640;2023-03-14T02:37:24;16.20;81.30
11836;DHT22;5977;51.972;7.640;2023-03-14T02:39:55;16.20;81.60
11836;DHT22;5977;51.972;7.640;2023-03-14T02:42:25;16.20;81.80
11836;DHT22;5977;51.972;7.640;2023-03-14T02:44:55;16.30;81.00
11836;DHT22;5977;51.972;7.640;2023-03-14T02:47:30;16.20;80.20
11836;DHT22;5977;51.972;7.640;2023-03-14T02:50:01;16.50;80.90
11836;DHT22;5977;51.972;7.640;2023-03-14T02:52:30;16.20;79.40
11836;DHT22;5977;51.972;7.640;2023-03-14T02:54:58;16.20;80.60
11836;DHT22;5977;51.972;7.640;2023-03-14T02:57:27;16.10;80.30
11836;DHT22;5977;51.972;7.640;2023-03-14T02:59:58;15.90;82.40
11836;DHT22;5977;51.972;7.640;2023-03-14T03:02:27;15.90;81.10
11836;DHT22;5977;51.972;7.640;2023-03-14T03:04:55;16.10;81.10
11836;DHT22;5977;51.972;7.640;2023-03-14T03:07:23;16.10;81.30
11836;DHT22;5977;51.972;7.640;2023-03-14T03:09:53;15.90;80.80
11836;DHT22;5977;51.972;7.640;2023-03-14T03:12:21;16.10;81.90
11836;DHT22;5977;51.972;7.640;2023-03-14T03:14:50;16.20;80.30
11836;DHT22;5977;51.972;7.640;2023-03-14T03:17:18;16.20;80.10
11836;DHT22;5977;51.972;7.640;2023-03-14T03:19:46;16.10;80.20
11836;DHT22;5977;51.972;7.640;2023-03-14T03:22:14;16.00;79.40
11836;DHT22;5977;51.972;7.640;2023-03-14T03:24:42;16.10;80.50
11836;DHT22;5977;51.972;7.640;2023-03-14T03:27:11;16.10;79.60
11836;DHT22;5977;51.972;7.640;2023-03-14T03:29:38;16.30;79.70
11836;DHT22;5977;51.972;7.640;2023-03-14T03:32:08;16.30;79.60
11836;DHT22;5977;51.972;7.640;2023-03-14T03:34:36;16.20;79.30
11836;DHT22;5977;51.972;7.640;2023-03-14T03:37:05;16.20;79.90
11836;DHT22;5977;51.972;7.640;2023-03-14T03:39:37;16.00;78.90
11836;DHT22;5977;51.972;7.640;2023-03-14T03:42:04;16.10;79.00
11836;DHT22;5977;51.972;7.640;2023-03-14T03:44:32;16.10;80.30
11836;DHT22;5977;51.972;7.640;2023-03-14T03:47:00;15.90;78.50
11836;DHT22;5977;51.972;7.640;2023-03-14T03:49:31;15.80;79.70
11836;DHT22;5977;51.972;7.640;2023-03-14T03:51:59;15.90;80.10
11836;DHT22;5977;51.972;7.640;2023-03-14T03:54:27;16.10;79.80
11836;DHT22;5977;51.972;7.640;2023-03-14T03:56:56;16.00;79.70
11836;DHT22;5977;51.972;7.640;2023-03-14T03:59:24;16.10;78.90
11836;DHT22;5977;51.972;7.640;2023-03-14T04:01:52;15.90;78.70
11836;DHT22;5977;51.972;7.640;2023-03-14T04:04:20;15.80;78.90
11836;DHT22;5977;51.972;7.640;2023-03-14T04:06:49;15.80;78.60
11836;DHT22;5977;51.972;7.640;2023-03-14T04:09:17;15.90;79.00
11836;DHT22;5977;51.972;7.640;2023-03-14T04:11:49;15.90;79.10
11836;DHT22;5977;51.972;7.640;2023-03-14T04:14:20;15.80;79.00
11836;DHT22;5977;51.972;7.640;2023-03-14T04:16:55;16.00;80.30
11836;DHT22;5977;51.972;7.640;2023-03-14T04:19:23;16.00;77.90
11836;DHT22;5977;51.972;7.640;2023-03-14T04:21:54;15.80;78.80
11836;DHT22;5977;51.972;7.640;2023-03-14T04:24:25;16.00;79.80
11836;DHT22;5977;51.972;7.640;2023-03-14T04:26:55;15.80;78.90
11836;DHT22;5977;51.972;7.640;2023-03-14T04:29:24;15.90;79.30
11836;DHT22;5977;51.972;7.640;2023-03-14T04:31:52;16.10;80.00
11836;DHT22;5977;51.972;7.640;2023-03-14T04:34:20;16.00;79.10
11836;DHT22;5977;51.972;7.640;2023-03-14T04:36:51;16.00;78.30
11836;DHT22;5977;51.972;7.640;2023-03-14T04:39:27;16.10;78.70
11836;DHT22;5977;51.972;7.640;2023-03-14T04:42:06;16.20;78.60
11836;DHT22;5977;51.972;7.640;2023-03-14T04:44:36;16.10;78.80
11836;DHT22;5977;51.972;7.640;2023-03-14T04:47:05;16.10;78.10
11836;DHT22;5977;51.972;7.640;2023-03-14T04:49:34;16.30;78.10
11836;DHT22;5977;51.972;7.640;2023-03-14T04:52:02;16.30;78.20
11836;DHT22;5977;51.972;7.640;2023-03-14T04:54:33;16.10;77.60
11836;DHT22;5977;51.972;7.640;2023-03-14T04:57:01;16.00;77.30
11836;DHT22;5977;51.972;7.640;2023-03-14T04:59:32;16.20;78.30
11836;DHT22;5977;51.972;7.640;2023-03-14T05:02:10;16.20;77.90
11836;DHT22;5977;51.972;7.640;2023-03-14T05:04:53;16.20;78.00
11836;DHT22;5977;51.972;7.640;2023-03-14T05:07:45;16.20;77.40
11836;DHT22;5977;51.972;7.640;2023-03-14T05:10:34;16.10;77.10
11836;DHT22;5977;51.972;7.640;2023-03-14T05:13:17;16.10;78.10
11836;DHT22;5977;51.972;7.640;2023-03-14T05:16:10;16.20;78.30
11836;DHT22;5977;51.972;7.640;2023-03-14T05:18:58;16.20;78.30
11836;DHT22;5977;51.972;7.640;2023-03-14T05:21:34;16.30;77.90
11836;DHT22;5977;51.972;7.640;2023-03-14T05:24:17;16.30;77.20
11836;DHT22;5977;51.972;7.640;2023-03-14T05:27:06;16.20;77.10
11836;DHT22;5977;51.972;7.640;2023-03-14T05:29:34;16.20;77.90
11836;DHT22;5977;51.972;7.640;2023-03-14T05:32:19;16.30;77.30
11836;DHT22;5977;51.972;7.640;2023-03-14T05:35:07;16.20;77.40
11836;DHT22;5977;51.972;7.640;2023-03-14T05:37:46;16.40;77.50
11836;DHT22;5977;51.972;7.640;2023-03-14T05:40:17;16.50;78.00
11836;DHT22;5977;51.972;7.640;2023-03-14T05:43:03;16.30;77.50
11836;DHT22;5977;51.972;7.640;2023-03-14T05:45:48;16.30;78.20
11836;DHT22;5977;51.972;7.640;2023-03-14T05:48:42;16.40;76.90
11836;DHT22;5977;51.972;7.640;2023-03-14T05:51:39;16.60;77.30
11836;DHT22;5977;51.972;7.640;2023-03-14T05:54:35;16.50;76.10
11836;DHT22;5977;51.972;7.640;2023-03-14T05:57:12;16.50;76.40
11836;DHT22;5977;51.972;7.640;2023-03-14T06:00:02;16.50;76.90
11836;DHT22;5977;51.972;7.640;2023-03-14T06:02:45;16.40;75.00
11836;DHT22;5977;51.972;7.640;2023-03-14T06:05:21;16.30;77.60
11836;DHT22;5977;51.972;7.640;2023-03-14T06:07:54;16.50;78.00
11836;DHT22;5977;51.972;7.640;2023-03-14T06:10:23;16.60;76.60
11836;DHT22;5977;51.972;7.640;2023-03-14T06:12:51;16.70;76.00
11836;DHT22;5977;51.972;7.640;2023-03-14T06:15:21;16.80;76.70
11836;DHT22;5977;51.972;7.640;2023-03-14T06:17:54;16.40;76.30
11836;DHT22;5977;51.972;7.640;2023-03-14T06:20:23;16.60;76.90
11836;DHT22;5977;51.972;7.640;2023-03-14T06:22:52;16.80;77.40
11836;DHT22;5977;51.972;7.640;2023-03-14T06:25:20;16.80;76.40
11836;DHT22;5977;51.972;7.640;2023-03-14T06:27:48;16.80;76.30
11836;DHT22;5977;51.972;7.640;2023-03-14T06:30:16;16.50;75.40
11836;DHT22;5977;51.972;7.640;2023-03-14T06:32:46;16.40;76.10
11836;DHT22;5977;51.972;7.640;2023-03-14T06:35:15;16.20;76.80
11836;DHT22;5977;51.972;7.640;2023-03-14T06:37:44;16.10;77.00
11836;DHT22;5977;51.972;7.640;2023-03-14T06:40:13;16.10;77.50
11836;DHT22;5977;51.972;7.640;2023-03-14T06:42:49;16.40;77.90
11836;DHT22;5977;51.972;7.640;2023-03-14T06:45:19;16.40;76.80
11836;DHT22;5977;51.972;7.640;2023-03-14T06:47:49;16.40;79.10
11836;DHT22;5977;51.972;7.640;2023-03-14T06:50:20;16.60;77.90
11836;DHT22;5977;51.972;7.640;2023-03-14T06:52:50;16.40;77.90
11836;DHT22;5977;51.972;7.640;2023-03-14T06:55:22;16.60;77.40
11836;DHT22;5977;51.972;7.640;2023-03-14T06:57:50;16.70;77.40
11836;DHT22;5977;51.972;7.640;2023-03-14T07:00:19;16.60;77.60
11836;DHT22;5977;51.972;7.640;2023-03-14T07:02:48;16.70;77.70
11836;DHT22;5977;51.972;7.640;2023-03-14T07:05:42;16.70;78.00
11836;DHT22;5977;51.972;7.640;2023-03-14T07:08:10;16.60;77.50
11836;DHT22;5977;51.972;7.640;2023-03-14T07:10:38;16.40;77.60
11836;DHT22;5977;51.972;7.640;2023-03-14T07:13:07;16.20;78.40
11836;DHT22;5977;51.972;7.640;2023-03-14T07:15:44;16.50;78.00
11836;DHT22;5977;51.972;7.640;2023-03-14T07:18:14;16.60;78.40
11836;DHT22;5977;51.972;7.640;2023-03-14T07:20:45;16.40;79.70
11836;DHT22;5977;51.972;7.640;2023-03-14T07:23:14;16.40;78.20
11836;DHT22;5977;51.972;7.640;2023-03-14T07:25:46;16.40;78.40
11836;DHT22;5977;51.972;7.640;2023-03-14T07:28:17;16.10;78.30
11836;DHT22;5977;51.972;7.640;2023-03-14T07:30:47;16.20;78.50
11836;DHT22;5977;51.972;7.640;2023-03-14T07:33:21;16.20;79.40
11836;DHT22;5977;51.972;7.640;2023-03-14T07:35:50;16.40;78.10
11836;DHT22;5977;51.972;7.640;2023-03-14T07:38:18;16.40;77.50
11836;DHT22;5977;51.972;7.640;2023-03-14T07:41:11;16.20;77.80
11836;DHT22;5977;51.972;7.640;2023-03-14T07:43:57;16.20;78.00
11836;DHT22;5977;51.972;7.640;2023-03-14T07:46:25;16.20;77.70
11836;DHT22;5977;51.972;7.640;2023-03-14T07:48:55;16.20;77.90
11836;DHT22;5977;51.972;7.640;2023-03-14T07:51:23;16.10;77.50
11836;DHT22;5977;51.972;7.640;2023-03-14T07:53:50;16.20;77.50
11836;DHT22;5977;51.972;7.640;2023-03-14T07:56:18;16.30;79.80
11836;DHT22;5977;51.972;7.640;2023-03-14T07:58:46;16.50;83.30
11836;DHT22;5977;51.972;7.640;2023-03-14T08:01:14;16.60;83.30
11836;DHT22;5977;51.972;7.640;2023-03-14T08:03:42;16.60;83.30
11836;DHT22;5977;51.972;7.640;2023-03-14T08:06:11;16.70;82.20
11836;DHT22;5977;51.972;7.640;2023-03-14T08:08:39;16.60;82.60
11836;DHT22;5977;51.972;7.640;2023-03-14T08:11:08;16.70;82.90
11836;DHT22;5977;51.972;7.640;2023-03-14T08:13:36;17.00;81.70
11836;DHT22;5977;51.972;7.640;2023-03-14T08:16:05;16.80;81.40
11836;DHT22;5977;51.972;7.640;2023-03-14T08:18:33;16.70;80.70
11836;DHT22;5977;51.972;7.640;2023-03-14T08:21:01;16.90;81.70
11836;DHT22;5977;51.972;7.640;2023-03-14T08:23:31;16.90;81.40
11836;DHT22;5977;51.972;7.640;2023-03-14T08:26:00;16.70;80.60
11836;DHT22;5977;51.972;7.640;2023-03-14T08:28:28;16.70;81.10
11836;DHT22;5977;51.972;7.640;2023-03-14T08:30:59;16.70;81.60
11836;DHT22;5977;51.972;7.640;2023-03-14T08:33:28;16.70;81.40
11836;DHT22;5977;51.972;7.640;2023-03-14T08:35:59;16.90;80.60
11836;DHT22;5977;51.972;7.640;2023-03-14T08:38:27;17.00;81.10
11836;DHT22;5977;51.972;7.640;2023-03-14T08:40:57;17.00;80.10
11836;DHT22;5977;51.972;7.640;2023-03-14T08:43:26;17.00;80.60
11836;DHT22;5977;51.972;7.640;2023-03-14T08:45:57;16.90;79.60
11836;DHT22;5977;51.972;7.640;2023-03-14T08:48:25;17.20;79.60
11836;DHT22;5977;51.972;7.640;2023-03-14T08:50:53;17.10;80.30
11836;DHT22;5977;51.972;7.640;2023-03-14T08:53:21;17.20;79.30
11836;DHT22;5977;51.972;7.640;2023-03-14T08:55:52;16.80;79.40
11836;DHT22;5977;51.972;7.640;2023-03-14T08:58:21;16.90;80.80
11836;DHT22;5977;51.972;7.640;2023-03-14T09:00:50;17.00;79.90
11836;DHT22;5977;51.972;7.640;2023-03-14T09:03:18;17.00;79.10
11836;DHT22;5977;51.972;7.640;2023-03-14T09:05:46;16.70;79.70
11836;DHT22;5977;51.972;7.640;2023-03-14T09:08:14;16.90;81.10
11836;DHT22;5977;51.972;7.640;2023-03-14T09:10:42;17.00;80.50
11836;DHT22;5977;51.972;7.640;2023-03-14T09:13:10;16.70;80.90
11836;DHT22;5977;51.972;7.640;2023-03-14T09:15:39;16.60;81.00
11836;DHT22;5977;51.972;7.640;2023-03-14T09:18:08;17.00;80.10
11836;DHT22;5977;51.972;7.640;2023-03-14T09:20:36;17.10;80.00
11836;DHT22;5977;51.972;7.640;2023-03-14T09:23:04;17.00;79.90
11836;DHT22;5977;51.972;7.640;2023-03-14T09:25:34;16.80;79.30
11836;DHT22;5977;51.972;7.640;2023-03-14T09:28:02;17.00;80.20
11836;DHT22;5977;51.972;7.640;2023-03-14T09:30:30;16.90;79.30
11836;DHT22;5977;51.972;7.640;2023-03-14T09:32:59;17.00;78.90
11836;DHT22;5977;51.972;7.640;2023-03-14T09:35:27;16.80;79.00
11836;DHT22;5977;51.972;7.640;2023-03-14T09:37:55;16.60;79.90
11836;DHT22;5977;51.972;7.640;2023-03-14T09:40:23;16.70;79.80
11836;DHT22;5977;51.972;7.640;2023-03-14T09:42:52;16.20;81.30
11836;DHT22;5977;51.972;7.640;2023-03-14T09:45:26;16.30;81.70
11836;DHT22;5977;51.972;7.640;2023-03-14T09:47:55;15.90;79.20
11836;DHT22;5977;51.972;7.640;2023-03-14T09:50:33;15.70;79.70
11836;DHT22;5977;51.972;7.640;2023-03-14T09:53:08;15.30;80.90
11836;DHT22;5977;51.972;7.640;2023-03-14T09:55:38;15.10;82.30
11836;DHT22;5977;51.972;7.640;2023-03-14T09:58:10;14.90;81.80
11836;DHT22;5977;51.972;7.640;2023-03-14T10:00:39;14.90;82.00
11836;DHT22;5977;51.972;7.640;2023-03-14T10:03:22;14.80;82.40
11836;DHT22;5977;51.972;7.640;2023-03-14T10:05:51;14.60;83.30
11836;DHT22;5977;51.972;7.640;2023-03-14T10:08:20;15.00;84.40
11836;DHT22;5977;51.972;7.640;2023-03-14T10:10:48;14.80;83.60
11836;DHT22;5977;51.972;7.640;2023-03-14T10:13:18;14.50;82.30
11836;DHT22;5977;51.972;7.640;2023-03-14T10:15:51;14.60;82.70
11836;DHT22;5977;51.972;7.640;2023-03-14T10:18:21;14.50;83.10
11836;DHT22;5977;51.972;7.640;2023-03-14T10:21:03;14.60;82.70
11836;DHT22;5977;51.972;7.640;2023-03-14T10:23:32;14.30;83.10
11836;DHT22;5977;51.972;7.640;2023-03-14T10:26:06;14.40;82.40
11836;DHT22;5977;51.972;7.640;2023-03-14T10:28:39;14.20;79.80
11836;DHT22;5977;51.972;7.640;2023-03-14T10:31:09;13.60;80.70
11836;DHT22;5977;51.972;7.640;2023-03-14T10:33:38;13.30;80.00
11836;DHT22;5977;51.972;7.640;2023-03-14T10:36:21;13.40;81.10
11836;DHT22;5977;51.972;7.640;2023-03-14T10:38:57;13.60;81.00
11836;DHT22;5977;51.972;7.640;2023-03-14T10:41:32;14.20;79.60
11836;DHT22;5977;51.972;7.640;2023-03-14T10:44:02;14.00;75.90
11836;DHT22;5977;51.972;7.640;2023-03-14T10:46:31;14.10;76.60
11836;DHT22;5977;51.972;7.640;2023-03-14T10:49:26;14.30;77.40
11836;DHT22;5977;51.972;7.640;2023-03-14T10:52:01;14.60;76.30
11836;DHT22;5977;51.972;7.640;2023-03-14T10:54:30;14.40;72.80
11836;DHT22;5977;51.972;7.640;2023-03-14T10:56:59;14.40;76.00
11836;DHT22;5977;51.972;7.640;2023-03-14T10:59:34;14.30;73.30
11836;DHT22;5977;51.972;7.640;2023-03-14T11:02:15;13.70;73.90
11836;DHT22;5977;51.972;7.640;2023-03-14T11:04:57;13.40;76.60
11836;DHT22;5977;51.972;7.640;2023-03-14T11:07:36;13.60;73.60
11836;DHT22;5977;51.972;7.640;2023-03-14T11:10:13;12.80;74.90
11836;DHT22;5977;51.972;7.640;2023-03-14T11:12:51;13.20;76.50
11836;DHT22;5977;51.972;7.640;2023-03-14T11:15:27;13.50;73.70
11836;DHT22;5977;51.972;7.640;2023-03-14T11:18:12;14.40;77.70
11836;DHT22;5977;51.972;7.640;2023-03-14T11:20:47;16.20;73.50
11836;DHT22;5977;51.972;7.640;2023-03-14T11:23:21;17.20;70.70
11836;DHT22;5977;51.972;7.640;2023-03-14T11:25:56;17.80;68.10
11836;DHT22;5977;51.972;7.640;2023-03-14T11:28:32;18.20;67.10
11836;DHT22;5977;51.972;7.640;2023-03-14T11:31:08;18.50;66.10
11836;DHT22;5977;51.972;7.640;2023-03-14T11:33:46;18.60;65.80
11836;DHT22;5977;51.972;7.640;2023-03-14T11:36:19;18.70;65.80
11836;DHT22;5977;51.972;7.640;2023-03-14T11:38:51;18.70;65.80
11836;DHT22;5977;51.972;7.640;2023-03-14T11:41:22;18.70;65.90
11836;DHT22;5977;51.972;7.640;2023-03-14T11:43:54;18.80;65.80
11836;DHT22;5977;51.972;7.640;2023-03-14T11:46:26;19.00;65.80
11836;DHT22;5977;51.972;7.640;2023-03-14T11:49:01;19.10;65.50
11836;DHT22;5977;51.972;7.640;2023-03-14T11:51:34;19.10;65.50
11836;DHT22;5977;51.972;7.640;2023-03-14T11:54:12;19.10;65.70
11836;DHT22;5977;51.972;7.640;2023-03-14T11:56:46;19.10;66.40
11836;DHT22;5977;51.972;7.640;2023-03-14T11:59:19;19.20;65.60
11836;DHT22;5977;51.972;7.640;2023-03-14T12:01:53;19.20;65.50
11836;DHT22;5977;51.972;7.640;2023-03-14T12:04:41;19.20;65.40
11836;DHT22;5977;51.972;7.640;2023-03-14T12:07:17;19.30;65.40
11836;DHT22;5977;51.972;7.640;2023-03-14T12:09:49;19.40;65.40
11836;DHT22;5977;51.972;7.640;2023-03-14T12:12:20;19.40;65.60
11836;DHT22;5977;51.972;7.640;2023-03-14T12:14:54;19.50;65.40
11836;DHT22;5977;51.972;7.640;2023-03-14T12:17:25;19.60;67.10
11836;DHT22;5977;51.972;7.640;2023-03-14T12:20:03;19.60;69.70
11836;DHT22;5977;51.972;7.640;2023-03-14T12:22:35;19.60;70.80
11836;DHT22;5977;51.972;7.640;2023-03-14T12:25:13;19.50;72.70
11836;DHT22;5977;51.972;7.640;2023-03-14T12:28:18;19.50;72.70
11836;DHT22;5977;51.972;7.640;2023-03-14T12:30:47;19.50;73.40
11836;DHT22;5977;51.972;7.640;2023-03-14T12:33:32;19.50;73.50
11836;DHT22;5977;51.972;7.640;2023-03-14T12:36:18;19.60;73.20
11836;DHT22;5977;51.972;7.640;2023-03-14T12:39:05;19.60;72.70
11836;DHT22;5977;51.972;7.640;2023-03-14T12:41:43;19.70;72.80
11836;DHT22;5977;51.972;7.640;2023-03-14T12:44:40;19.70;72.30
11836;DHT22;5977;51.972;7.640;2023-03-14T12:50:13;19.80;69.60
11836;DHT22;5977;51.972;7.640;2023-03-14T12:52:49;19.90;69.80
11836;DHT22;5977;51.972;7.640;2023-03-14T12:55:31;19.90;69.40
11836;DHT22;5977;51.972;7.640;2023-03-14T12:58:06;19.90;69.40
11836;DHT22;5977;51.972;7.640;2023-03-14T13:00:39;19.80;69.30
11836;DHT22;5977;51.972;7.640;2023-03-14T13:03:18;19.80;69.70
11836;DHT22;5977;51.972;7.640;2023-03-14T13:05:52;19.70;69.50
11836;DHT22;5977;51.972;7.640;2023-03-14T13:08:36;19.70;69.40
11836;DHT22;5977;51.972;7.640;2023-03-14T13:11:09;19.60;69.00
11836;DHT22;5977;51.972;7.640;2023-03-14T13:13:42;19.50;69.40
11836;DHT22;5977;51.972;7.640;2023-03-14T13:16:16;19.60;69.50
11836;DHT22;5977;51.972;7.640;2023-03-14T13:18:46;19.80;69.60
11836;DHT22;5977;51.972;7.640;2023-03-14T13:21:17;19.80;69.30
11836;DHT22;5977;51.972;7.640;2023-03-14T13:23:57;19.90;69.20
11836;DHT22;5977;51.972;7.640;2023-03-14T13:26:32;20.00;69.20
11836;DHT22;5977;51.972;7.640;2023-03-14T13:29:14;20.00;69.20
11836;DHT22;5977;51.972;7.640;2023-03-14T13:31:44;20.00;69.20
11836;DHT22;5977;51.972;7.640;2023-03-14T13:34:12;20.00;69.40
11836;DHT22;5977;51.972;7.640;2023-03-14T13:36:40;20.00;69.70
11836;DHT22;5977;51.972;7.640;2023-03-14T13:39:12;20.00;69.70
11836;DHT22;5977;51.972;7.640;2023-03-14T13:41:41;19.90;69.50
11836;DHT22;5977;51.972;7.640;2023-03-14T13:44:16;19.80;69.80
11836;DHT22;5977;51.972;7.640;2023-03-14T13:46:44;19.90;69.70
11836;DHT22;5977;51.972;7.640;2023-03-14T13:49:17;20.00;69.60
11836;DHT22;5977;51.972;7.640;2023-03-14T13:51:46;20.00;69.50
11836;DHT22;5977;51.972;7.640;2023-03-14T13:54:14;20.00;69.90
11836;DHT22;5977;51.972;7.640;2023-03-14T13:56:43;20.00;69.60
11836;DHT22;5977;51.972;7.640;2023-03-14T13:59:26;19.90;69.60
11836;DHT22;5977;51.972;7.640;2023-03-14T14:01:55;19.80;69.50
11836;DHT22;5977;51.972;7.640;2023-03-14T14:04:24;19.80;69.60
11836;DHT22;5977;51.972;7.640;2023-03-14T14:06:55;19.80;69.60
11836;DHT22;5977;51.972;7.640;2023-03-14T14:09:26;19.80;69.60
11836;DHT22;5977;51.972;7.640;2023-03-14T14:11:56;19.80;69.30
11836;DHT22;5977;51.972;7.640;2023-03-14T14:14:46;19.80;69.60
11836;DHT22;5977;51.972;7.640;2023-03-14T14:17:17;19.70;69.50
11836;DHT22;5977;51.972;7.640;2023-03-14T14:19:46;19.70;69.60
11836;DHT22;5977;51.972;7.640;2023-03-14T14:22:15;19.70;69.60
11836;DHT22;5977;51.972;7.640;2023-03-14T14:24:44;19.70;69.40
11836;DHT22;5977;51.972;7.640;2023-03-14T14:27:14;19.60;69.50
11836;DHT22;5977;51.972;7.640;2023-03-14T14:29:44;19.70;69.30
11836;DHT22;5977;51.972;7.640;2023-03-14T14:32:13;19.60;69.20
11836;DHT22;5977;51.972;7.640;2023-03-14T14:34:44;19.60;69.40
11836;DHT22;5977;51.972;7.640;2023-03-14T14:37:19;19.60;69.40
11836;DHT22;5977;51.972;7.640;2023-03-14T14:39:47;19.60;69.40
11836;DHT22;5977;51.972;7.640;2023-03-14T14:42:16;19.60;69.70
11836;DHT22;5977;51.972;7.640;2023-03-14T14:44:46;19.60;69.50
11836;DHT22;5977;51.972;7.640;2023-03-14T14:47:18;19.60;69.60
11836;DHT22;5977;51.972;7.640;2023-03-14T14:49:48;19.50;69.20
11836;DHT22;5977;51.972;7.640;2023-03-14T14:52:17;19.50;69.50
11836;DHT22;5977;51.972;7.640;2023-03-14T14:54:47;19.50;69.60
11836;DHT22;5977;51.972;7.640;2023-03-14T14:57:19;19.50;69.60
11836;DHT22;5977;51.972;7.640;2023-03-14T14:59:50;19.50;69.30
11836;DHT22;5977;51.972;7.640;2023-03-14T15:02:28;19.40;69.60
11836;DHT22;5977;51.972;7.640;2023-03-14T15:04:57;19.50;69.60
11836;DHT22;5977;51.972;7.640;2023-03-14T15:07:25;19.50;69.70
11836;DHT22;5977;51.972;7.640;2023-03-14T15:09:54;19.50;69.80
11836;DHT22;5977;51.972;7.640;2023-03-14T15:12:21;19.50;69.90
11836;DHT22;5977;51.972;7.640;2023-03-14T15:14:52;19.40;69.80
11836;DHT22;5977;51.972;7.640;2023-03-14T15:17:23;19.40;69.60
11836;DHT22;5977;51.972;7.640;2023-03-14T15:19:51;19.50;69.80
11836;DHT22;5977;51.972;7.640;2023-03-14T15:22:19;19.50;69.70
11836;DHT22;5977;51.972;7.640;2023-03-14T15:24:47;19.40;69.70
11836;DHT22;5977;51.972;7.640;2023-03-14T15:27:17;19.40;69.80
11836;DHT22;5977;51.972;7.640;2023-03-14T15:29:45;19.50;69.80
11836;DHT22;5977;51.972;7.640;2023-03-14T15:32:16;19.40;70.00
11836;DHT22;5977;51.972;7.640;2023-03-14T15:34:44;19.40;69.50
11836;DHT22;5977;51.972;7.640;2023-03-14T15:37:14;19.30;70.90
11836;DHT22;5977;51.972;7.640;2023-03-14T15:39:42;19.20;71.00
11836;DHT22;5977;51.972;7.640;2023-03-14T15:42:10;19.20;72.50
11836;DHT22;5977;51.972;7.640;2023-03-14T15:44:39;19.10;72.30
11836;DHT22;5977;51.972;7.640;2023-03-14T15:47:08;19.30;74.00
11836;DHT22;5977;51.972;7.640;2023-03-14T15:49:38;19.50;74.60
11836;DHT22;5977;51.972;7.640;2023-03-14T15:52:07;19.60;75.10
11836;DHT22;5977;51.972;7.640;2023-03-14T15:54:35;19.60;75.70
11836;DHT22;5977;51.972;7.640;2023-03-14T15:57:03;19.70;75.60
11836;DHT22;5977;51.972;7.640;2023-03-14T15:59:33;19.20;71.40
11836;DHT22;5977;51.972;7.640;2023-03-14T16:02:01;17.30;66.80
11836;DHT22;5977;51.972;7.640;2023-03-14T16:04:29;16.60;68.90
11836;DHT22;5977;51.972;7.640;2023-03-14T16:06:59;16.40;69.00
11836;DHT22;5977;51.972;7.640;2023-03-14T16:09:26;16.40;68.60
11836;DHT22;5977;51.972;7.640;2023-03-14T16:11:54;16.50;68.30
11836;DHT22;5977;51.972;7.640;2023-03-14T16:14:22;16.70;68.80
11836;DHT22;5977;51.972;7.640;2023-03-14T16:16:51;16.50;66.00
11836;DHT22;5977;51.972;7.640;2023-03-14T16:19:19;16.60;67.20
11836;DHT22;5977;51.972;7.640;2023-03-14T16:21:47;16.50;65.20